sensor_id;sensor_type;location;lat;lon;timestamp;pressure;altitude;pressure_sealevel;temperature;humidity
35918;BME280;22011;59.912;30.300;2023-04-28T00:00:23;101273.09;;;7.04;71.77
35918;BME280;22011;59.912;30.300;2023-04-28T00:02:52;101278.13;;;7.07;72.40
35918;BME280;22011;59.912;30.300;2023-04-28T00:05:19;101278.13;;;7.07;73.07
35918;BME280;22011;59.912;30.300;2023-04-28T00:07:48;101279.81;;;7.08;71.87
35918;BME280;22011;59.912;30.300;2023-04-28T00:10:15;101278.13;;;7.07;71.86
35918;BME280;22011;59.912;30.300;2023-04-28T00:12:43;101273.94;;;7.04;72.81
35918;BME280;22011;59.912;30.300;2023-04-28T00:15:10;101272.84;;;7.07;72.89
35918;BME280;22011;59.912;30.300;2023-04-28T00:17:38;101279.28;;;7.14;72.51
35918;BME280;22011;59.912;30.300;2023-04-28T00:20:08;101282.91;;;7.13;72.48
35918;BME280;22011;59.912;30.300;2023-04-28T00:22:35;101277.56;;;7.34;73.36
35918;BME280;22011;59.912;30.300;2023-04-28T00:25:04;101281.50;;;7.09;71.78
35918;BME280;22011;59.912;30.300;2023-04-28T00:27:31;101273.81;;;7.06;71.88
35918;BME280;22011;59.912;30.300;2023-04-28T00:29:59;101273.41;;;7.10;72.14
35918;BME280;22011;59.912;30.300;2023-04-28T00:32:27;101281.75;;;7.06;72.14
35918;BME280;22011;59.912;30.300;2023-04-28T00:34:56;101286.53;;;7.12;71.67
35918;BME280;22011;59.912;30.300;2023-04-28T00:37:25;101293.00;;;7.19;72.05
35918;BME280;22011;59.912;30.300;2023-04-28T00:39:55;101296.09;;;7.24;72.08
35918;BME280;22011;59.912;30.300;2023-04-28T00:42:23;101286.19;;;7.26;71.66
35918;BME280;22011;59.912;30.300;2023-04-28T00:44:50;101282.75;;;7.35;71.33
35918;BME280;22011;59.912;30.300;2023-04-28T00:47:18;101288.31;;;7.32;71.38
35918;BME280;22011;59.912;30.300;2023-04-28T00:49:46;101298.19;;;7.30;71.88
35918;BME280;22011;59.912;30.300;2023-04-28T00:52:14;101288.31;;;7.32;71.29
35918;BME280;22011;59.912;30.300;2023-04-28T00:54:43;101295.28;;;7.33;71.73
35918;BME280;22011;59.912;30.300;2023-04-28T00:57:12;101282.28;;;7.30;72.11
35918;BME280;22011;59.912;30.300;2023-04-28T00:59:40;101284.94;;;7.30;72.43
35918;BME280;22011;59.912;30.300;2023-04-28T01:02:08;101284.09;;;7.30;71.94
35918;BME280;22011;59.912;30.300;2023-04-28T01:04:43;101275.19;;;7.31;71.78
35918;BME280;22011;59.912;30.300;2023-04-28T01:07:11;101277.56;;;7.34;71.67
35918;BME280;22011;59.912;30.300;2023-04-28T01:09:39;101278.53;;;7.33;72.27
35918;BME280;22011;59.912;30.300;2023-04-28T01:12:10;101273.69;;;7.38;72.03
35918;BME280;22011;59.912;30.300;2023-04-28T01:14:49;101271.44;;;7.33;71.69
35918;BME280;22011;59.912;30.300;2023-04-28T01:17:17;101272.13;;;7.35;71.05
35918;BME280;22011;59.912;30.300;2023-04-28T01:19:45;101278.00;;;7.39;71.15
35918;BME280;22011;59.912;30.300;2023-04-28T01:22:13;101282.34;;;7.40;71.21
35918;BME280;22011;59.912;30.300;2023-04-28T01:24:44;101284.59;;;7.44;71.85
35918;BME280;22011;59.912;30.300;2023-04-28T01:27:13;101279.13;;;7.36;70.57
35918;BME280;22011;59.912;30.300;2023-04-28T01:29:41;101286.41;;;7.44;70.79
35918;BME280;22011;59.912;30.300;2023-04-28T01:32:09;101281.16;;;7.53;70.75
35918;BME280;22011;59.912;30.300;2023-04-28T01:34:36;101277.00;;;7.61;71.29
35918;BME280;22011;59.912;30.300;2023-04-28T01:37:05;101284.69;;;7.64;72.13
35918;BME280;22011;59.912;30.300;2023-04-28T01:39:33;101287.06;;;7.67;70.12
35918;BME280;22011;59.912;30.300;2023-04-28T01:42:04;101289.91;;;7.75;69.64
35918;BME280;22011;59.912;30.300;2023-04-28T01:44:32;101287.06;;;7.67;69.35
35918;BME280;22011;59.912;30.300;2023-04-28T01:47:00;101286.50;;;7.63;70.46
35918;BME280;22011;59.912;30.300;2023-04-28T01:49:27;101289.84;;;7.65;70.37
35918;BME280;22011;59.912;30.300;2023-04-28T01:51:55;101284.28;;;7.68;70.37
35918;BME280;22011;59.912;30.300;2023-04-28T01:54:22;101283.88;;;7.73;69.92
35918;BME280;22011;59.912;30.300;2023-04-28T01:56:50;101284.59;;;7.75;69.24
35918;BME280;22011;59.912;30.300;2023-04-28T01:59:21;101282.81;;;7.85;69.51
35918;BME280;22011;59.912;30.300;2023-04-28T02:01:48;101285.72;;;7.82;69.58
35918;BME280;22011;59.912;30.300;2023-04-28T02:04:16;101286.84;;;7.79;68.40
35918;BME280;22011;59.912;30.300;2023-04-28T02:06:43;101298.28;;;7.80;68.29
35918;BME280;22011;59.912;30.300;2023-04-28T02:09:12;101293.28;;;7.86;67.73
35918;BME280;22011;59.912;30.300;2023-04-28T02:11:39;101289.25;;;7.92;67.59
35918;BME280;22011;59.912;30.300;2023-04-28T02:14:07;101301.38;;;7.85;68.01
35918;BME280;22011;59.912;30.300;2023-04-28T02:16:36;101288.81;;;7.87;68.44
35918;BME280;22011;59.912;30.300;2023-04-28T02:19:03;101290.50;;;7.88;67.94
35918;BME280;22011;59.912;30.300;2023-04-28T02:21:31;101287.72;;;7.90;67.98
35918;BME280;22011;59.912;30.300;2023-04-28T02:23:58;101291.91;;;7.92;69.27
35918;BME280;22011;59.912;30.300;2023-04-28T02:26:26;101287.00;;;7.87;69.09
35918;BME280;22011;59.912;30.300;2023-04-28T02:28:53;101293.84;;;7.90;68.37
35918;BME280;22011;59.912;30.300;2023-04-28T02:31:21;101288.56;;;7.90;68.87
35918;BME280;22011;59.912;30.300;2023-04-28T02:33:50;101294.13;;;7.87;68.67
35918;BME280;22011;59.912;30.300;2023-04-28T02:36:18;101293.56;;;7.83;68.76
35918;BME280;22011;59.912;30.300;2023-04-28T02:38:45;101299.00;;;7.82;69.23
35918;BME280;22011;59.912;30.300;2023-04-28T02:41:13;101293.56;;;7.83;70.35
35918;BME280;22011;59.912;30.300;2023-04-28T02:43:41;101291.03;;;7.82;69.53
35918;BME280;22011;59.912;30.300;2023-04-28T02:46:08;101299.81;;;7.73;69.31
35918;BME280;22011;59.912;30.300;2023-04-28T02:48:36;101302.44;;;7.73;69.01
35918;BME280;22011;59.912;30.300;2023-04-28T02:51:05;101287.69;;;7.80;69.49
35918;BME280;22011;59.912;30.300;2023-04-28T02:53:33;101291.31;;;7.79;69.28
35918;BME280;22011;59.912;30.300;2023-04-28T02:56:01;101298.28;;;7.80;68.78
35918;BME280;22011;59.912;30.300;2023-04-28T02:58:30;101296.91;;;7.85;68.07
35918;BME280;22011;59.912;30.300;2023-04-28T03:00:58;101300.38;;;7.76;68.94
35918;BME280;22011;59.912;30.300;2023-04-28T03:03:26;101306.06;;;7.72;69.65
35918;BME280;22011;59.912;30.300;2023-04-28T03:05:53;101301.97;;;7.58;68.88
35918;BME280;22011;59.912;30.300;2023-04-28T03:08:23;101306.34;;;7.69;70.27
35918;BME280;22011;59.912;30.300;2023-04-28T03:10:52;101308.03;;;7.70;70.07
35918;BME280;22011;59.912;30.300;2023-04-28T03:13:20;101295.06;;;7.76;70.18
35918;BME280;22011;59.912;30.300;2023-04-28T03:15:49;101286.84;;;7.79;69.01
35918;BME280;22011;59.912;30.300;2023-04-28T03:18:17;101294.41;;;7.84;69.87
35918;BME280;22011;59.912;30.300;2023-04-28T03:20:45;101294.94;;;7.78;69.65
35918;BME280;22011;59.912;30.300;2023-04-28T03:23:12;101305.53;;;7.78;69.88
35918;BME280;22011;59.912;30.300;2023-04-28T03:25:41;101293.56;;;7.83;70.32
35918;BME280;22011;59.912;30.300;2023-04-28T03:28:09;101305.53;;;7.78;69.36
35918;BME280;22011;59.912;30.300;2023-04-28T03:30:36;101316.72;;;7.81;69.41
35918;BME280;22011;59.912;30.300;2023-04-28T03:33:04;101316.91;;;7.90;69.24
35918;BME280;22011;59.912;30.300;2023-04-28T03:35:32;101313.72;;;7.96;69.95
35918;BME280;22011;59.912;30.300;2023-04-28T03:38:00;101315.09;;;7.90;69.48
35918;BME280;22011;59.912;30.300;2023-04-28T03:40:27;101312.53;;;7.79;69.96
35918;BME280;22011;59.912;30.300;2023-04-28T03:43:25;101308.19;;;7.78;69.79
35918;BME280;22011;59.912;30.300;2023-04-28T03:46:07;101310.03;;;7.87;69.64
35918;BME280;22011;59.912;30.300;2023-04-28T03:48:35;101316.63;;;7.93;70.56
35918;BME280;22011;59.912;30.300;2023-04-28T03:51:03;101312.56;;;7.88;69.33
35918;BME280;22011;59.912;30.300;2023-04-28T03:53:31;101315.66;;;7.94;68.84
35918;BME280;22011;59.912;30.300;2023-04-28T03:55:58;101326.84;;;7.97;69.65
35918;BME280;22011;59.912;30.300;2023-04-28T03:58:27;101323.50;;;8.05;68.83
35918;BME280;22011;59.912;30.300;2023-04-28T04:00:55;101322.41;;;8.07;68.62
35918;BME280;22011;59.912;30.300;2023-04-28T04:03:22;101323.50;;;8.05;68.22
35918;BME280;22011;59.912;30.300;2023-04-28T04:05:51;101328.53;;;7.98;68.35
35918;BME280;22011;59.912;30.300;2023-04-28T04:08:21;101321.25;;;8.00;68.04
35918;BME280;22011;59.912;30.300;2023-04-28T04:10:49;101324.91;;;7.99;68.73
35918;BME280;22011;59.912;30.300;2023-04-28T04:13:17;101324.06;;;7.99;67.82
35918;BME280;22011;59.912;30.300;2023-04-28T04:15:46;101323.66;;;8.03;69.81
35918;BME280;22011;59.912;30.300;2023-04-28T04:18:15;101325.72;;;8.00;68.99
35918;BME280;22011;59.912;30.300;2023-04-28T04:21:15;101328.25;;;8.01;68.42
35918;BME280;22011;59.912;30.300;2023-04-28T04:23:44;101339.72;;;8.02;68.33
35918;BME280;22011;59.912;30.300;2023-04-28T04:26:12;101332.16;;;7.97;67.71
35918;BME280;22011;59.912;30.300;2023-04-28T04:28:39;101330.91;;;8.01;69.57
35918;BME280;22011;59.912;30.300;2023-04-28T04:31:10;101340.38;;;7.94;68.92
35918;BME280;22011;59.912;30.300;2023-04-28T04:33:37;101331.53;;;7.84;69.22
35918;BME280;22011;59.912;30.300;2023-04-28T04:36:06;101341.19;;;7.85;70.42
35918;BME280;22011;59.912;30.300;2023-04-28T04:38:34;101344.53;;;7.87;69.14
35918;BME280;22011;59.912;30.300;2023-04-28T04:41:11;101337.19;;;8.00;69.14
35918;BME280;22011;59.912;30.300;2023-04-28T04:43:39;101342.50;;;8.00;68.75
35918;BME280;22011;59.912;30.300;2023-04-28T04:46:07;101348.63;;;8.01;68.73
35918;BME280;22011;59.912;30.300;2023-04-28T04:48:36;101354.53;;;8.04;69.12
35918;BME280;22011;59.912;30.300;2023-04-28T04:51:04;101348.06;;;7.97;69.41
35918;BME280;22011;59.912;30.300;2023-04-28T04:53:32;101347.22;;;7.97;69.38
35918;BME280;22011;59.912;30.300;2023-04-28T04:56:00;101339.28;;;7.97;70.09
35918;BME280;22011;59.912;30.300;2023-04-28T04:58:29;101338.25;;;7.88;68.91
35918;BME280;22011;59.912;30.300;2023-04-28T05:00:56;101345.25;;;7.89;70.04
35918;BME280;22011;59.912;30.300;2023-04-28T05:03:24;101345.50;;;7.86;69.68
35918;BME280;22011;59.912;30.300;2023-04-28T05:05:53;101350.03;;;7.95;70.93
35918;BME280;22011;59.912;30.300;2023-04-28T05:08:31;101349.06;;;8.06;71.32
35918;BME280;22011;59.912;30.300;2023-04-28T05:10:59;101355.81;;;8.10;70.40
35918;BME280;22011;59.912;30.300;2023-04-28T05:13:26;101350.31;;;8.02;70.00
35918;BME280;22011;59.912;30.300;2023-04-28T05:15:59;101356.47;;;8.02;70.58
35918;BME280;22011;59.912;30.300;2023-04-28T05:18:41;101359.00;;;8.04;69.78
35918;BME280;22011;59.912;30.300;2023-04-28T05:21:11;101354.25;;;8.07;69.99
35918;BME280;22011;59.912;30.300;2023-04-28T05:23:38;101363.16;;;7.97;69.20
35918;BME280;22011;59.912;30.300;2023-04-28T05:26:06;101359.38;;;7.99;69.83
35918;BME280;22011;59.912;30.300;2023-04-28T05:28:34;101359.00;;;8.04;69.73
35918;BME280;22011;59.912;30.300;2023-04-28T05:31:02;101361.50;;;8.05;69.34
35918;BME280;22011;59.912;30.300;2023-04-28T05:33:31;101360.13;;;8.11;69.40
35918;BME280;22011;59.912;30.300;2023-04-28T05:35:58;101363.06;;;8.08;69.17
35918;BME280;22011;59.912;30.300;2023-04-28T05:38:27;101367.41;;;8.18;69.78
35918;BME280;22011;59.912;30.300;2023-04-28T05:40:58;101362.97;;;8.29;68.72
35918;BME280;22011;59.912;30.300;2023-04-28T05:43:25;101365.22;;;8.33;69.16
35918;BME280;22011;59.912;30.300;2023-04-28T05:45:53;101364.97;;;8.36;68.37
35918;BME280;22011;59.912;30.300;2023-04-28T05:48:21;101362.72;;;8.41;68.70
35918;BME280;22011;59.912;30.300;2023-04-28T05:50:48;101365.13;;;8.44;68.88
35918;BME280;22011;59.912;30.300;2023-04-28T05:53:16;101366.22;;;8.42;68.75
35918;BME280;22011;59.912;30.300;2023-04-28T05:55:45;101368.19;;;8.40;69.08
35918;BME280;22011;59.912;30.300;2023-04-28T05:58:13;101375.44;;;8.38;69.06
35918;BME280;22011;59.912;30.300;2023-04-28T06:00:41;101366.94;;;8.44;68.27
35918;BME280;22011;59.912;30.300;2023-04-28T06:03:08;101367.38;;;8.49;69.58
35918;BME280;22011;59.912;30.300;2023-04-28T06:05:36;101371.41;;;8.43;68.17
35918;BME280;22011;59.912;30.300;2023-04-28T06:08:04;101373.75;;;8.37;67.83
35918;BME280;22011;59.912;30.300;2023-04-28T06:10:33;101375.72;;;8.35;68.22
35918;BME280;22011;59.912;30.300;2023-04-28T06:13:02;101374.59;;;8.37;68.25
35918;BME280;22011;59.912;30.300;2023-04-28T06:15:31;101380.63;;;8.39;67.80
35918;BME280;22011;59.912;30.300;2023-04-28T06:17:59;101377.28;;;8.47;67.47
35918;BME280;22011;59.912;30.300;2023-04-28T06:20:27;101383.72;;;8.44;67.04
35918;BME280;22011;59.912;30.300;2023-04-28T06:22:54;101388.19;;;8.44;68.42
35918;BME280;22011;59.912;30.300;2023-04-28T06:25:22;101391.53;;;8.46;67.91
35918;BME280;22011;59.912;30.300;2023-04-28T06:27:50;101390.28;;;8.50;67.16
35918;BME280;22011;59.912;30.300;2023-04-28T06:30:20;101390.44;;;8.48;68.04
35918;BME280;22011;59.912;30.300;2023-04-28T06:32:48;101399.34;;;8.38;68.71
35918;BME280;22011;59.912;30.300;2023-04-28T06:35:17;101403.06;;;8.26;67.31
35918;BME280;22011;59.912;30.300;2023-04-28T06:37:44;101406.59;;;8.36;67.45
35918;BME280;22011;59.912;30.300;2023-04-28T06:40:12;101415.00;;;8.41;68.00
35918;BME280;22011;59.912;30.300;2023-04-28T06:42:45;101409.81;;;8.39;67.35
35918;BME280;22011;59.912;30.300;2023-04-28T06:45:20;101408.59;;;8.53;67.58
35918;BME280;22011;59.912;30.300;2023-04-28T06:47:48;101411.44;;;8.61;68.07
35918;BME280;22011;59.912;30.300;2023-04-28T06:50:16;101405.53;;;8.58;66.98
35918;BME280;22011;59.912;30.300;2023-04-28T06:52:43;101404.44;;;8.60;66.51
35918;BME280;22011;59.912;30.300;2023-04-28T06:55:16;101412.41;;;8.70;67.70
35918;BME280;22011;59.912;30.300;2023-04-28T06:57:43;101413.66;;;8.56;67.01
35918;BME280;22011;59.912;30.300;2023-04-28T07:00:12;101412.25;;;8.52;67.11
35918;BME280;22011;59.912;30.300;2023-04-28T07:02:41;101421.06;;;8.62;66.58
35918;BME280;22011;59.912;30.300;2023-04-28T07:05:08;101421.94;;;8.72;65.50
35918;BME280;22011;59.912;30.300;2023-04-28T07:07:36;101418.44;;;8.72;66.24
35918;BME280;22011;59.912;30.300;2023-04-28T07:10:05;101418.84;;;8.67;65.44
35918;BME280;22011;59.912;30.300;2023-04-28T07:12:32;101415.91;;;8.70;64.72
35918;BME280;22011;59.912;30.300;2023-04-28T07:15:00;101417.75;;;8.79;64.48
35918;BME280;22011;59.912;30.300;2023-04-28T07:17:28;101426.00;;;8.76;64.86
35918;BME280;22011;59.912;30.300;2023-04-28T07:19:56;101428.94;;;8.83;65.90
35918;BME280;22011;59.912;30.300;2023-04-28T07:22:24;101431.06;;;8.89;65.08
35918;BME280;22011;59.912;30.300;2023-04-28T07:24:52;101433.56;;;8.91;64.88
35918;BME280;22011;59.912;30.300;2023-04-28T07:27:19;101426.88;;;8.96;64.88
35918;BME280;22011;59.912;30.300;2023-04-28T07:29:46;101430.50;;;9.05;64.23
35918;BME280;22011;59.912;30.300;2023-04-28T07:32:15;101414.69;;;9.23;64.91
35918;BME280;22011;59.912;30.300;2023-04-28T07:34:43;101423.53;;;9.33;63.33
35918;BME280;22011;59.912;30.300;2023-04-28T07:37:12;101427.72;;;9.35;62.80
35918;BME280;22011;59.912;30.300;2023-04-28T07:39:39;101435.78;;;9.43;62.78
35918;BME280;22011;59.912;30.300;2023-04-28T07:42:07;101431.88;;;9.57;63.01
35918;BME280;22011;59.912;30.300;2023-04-28T07:44:34;101432.56;;;9.59;62.60
35918;BME280;22011;59.912;30.300;2023-04-28T07:47:02;101430.75;;;9.50;61.17
35918;BME280;22011;59.912;30.300;2023-04-28T07:49:30;101439.69;;;9.59;62.82
35918;BME280;22011;59.912;30.300;2023-04-28T07:51:57;101430.72;;;9.69;63.04
35918;BME280;22011;59.912;30.300;2023-04-28T07:54:26;101448.88;;;9.93;62.49
35918;BME280;22011;59.912;30.300;2023-04-28T07:56:55;101446.38;;;9.92;60.33
35918;BME280;22011;59.912;30.300;2023-04-28T07:59:23;101442.59;;;9.84;59.61
35918;BME280;22011;59.912;30.300;2023-04-28T08:01:50;101444.28;;;9.86;60.18
35918;BME280;22011;59.912;30.300;2023-04-28T08:04:18;101448.03;;;9.93;61.84
35918;BME280;22011;59.912;30.300;2023-04-28T08:06:45;101443.81;;;10.00;60.45
35918;BME280;22011;59.912;30.300;2023-04-28T08:09:13;101436.53;;;10.02;60.18
35918;BME280;22011;59.912;30.300;2023-04-28T08:11:42;101440.16;;;10.10;60.04
35918;BME280;22011;59.912;30.300;2023-04-28T08:14:09;101427.53;;;10.12;58.37
35918;BME280;22011;59.912;30.300;2023-04-28T08:16:36;101429.75;;;10.27;58.11
35918;BME280;22011;59.912;30.300;2023-04-28T08:19:06;101436.91;;;10.44;54.85
35918;BME280;22011;59.912;30.300;2023-04-28T08:21:33;101434.66;;;10.49;56.20
35918;BME280;22011;59.912;30.300;2023-04-28T08:24:01;101428.88;;;10.54;55.31
35918;BME280;22011;59.912;30.300;2023-04-28T08:26:28;101433.16;;;10.64;55.49
35918;BME280;22011;59.912;30.300;2023-04-28T08:28:57;101430.38;;;10.84;55.26
35918;BME280;22011;59.912;30.300;2023-04-28T08:31:25;101426.34;;;10.79;55.38
35918;BME280;22011;59.912;30.300;2023-04-28T08:33:52;101428.31;;;10.77;54.38
35918;BME280;22011;59.912;30.300;2023-04-28T08:36:20;101422.31;;;10.93;55.62
35918;BME280;22011;59.912;30.300;2023-04-28T08:38:48;101419.59;;;11.03;55.13
35918;BME280;22011;59.912;30.300;2023-04-28T08:41:16;101415.69;;;11.15;54.02
35918;BME280;22011;59.912;30.300;2023-04-28T08:43:44;101419.28;;;11.24;54.21
35918;BME280;22011;59.912;30.300;2023-04-28T08:46:13;101419.81;;;11.27;54.74
35918;BME280;22011;59.912;30.300;2023-04-28T08:48:42;101416.44;;;11.69;55.49
35918;BME280;22011;59.912;30.300;2023-04-28T08:51:13;101415.84;;;11.31;54.16
35918;BME280;22011;59.912;30.300;2023-04-28T08:53:44;101415.69;;;11.33;53.00
35918;BME280;22011;59.912;30.300;2023-04-28T08:56:16;101419.72;;;11.37;51.81
35918;BME280;22011;59.912;30.300;2023-04-28T08:58:45;101412.28;;;11.48;51.72
35918;BME280;22011;59.912;30.300;2023-04-28T09:01:14;101410.13;;;11.52;52.35
35918;BME280;22011;59.912;30.300;2023-04-28T09:03:41;101410.44;;;11.49;51.45
35918;BME280;22011;59.912;30.300;2023-04-28T09:06:09;101420.44;;;11.47;50.70
35918;BME280;22011;59.912;30.300;2023-04-28T09:08:36;101419.66;;;11.55;50.77
35918;BME280;22011;59.912;30.300;2023-04-28T09:11:05;101415.31;;;11.54;51.96
35918;BME280;22011;59.912;30.300;2023-04-28T09:13:34;101408.94;;;11.46;50.58
35918;BME280;22011;59.912;30.300;2023-04-28T09:16:02;101413.97;;;11.50;51.94
35918;BME280;22011;59.912;30.300;2023-04-28T09:18:31;101405.75;;;11.69;51.99
35918;BME280;22011;59.912;30.300;2023-04-28T09:21:03;101408.19;;;11.80;52.39
35918;BME280;22011;59.912;30.300;2023-04-28T09:23:31;101399.63;;;11.76;50.88
35918;BME280;22011;59.912;30.300;2023-04-28T09:26:02;101409.88;;;11.81;51.60
35918;BME280;22011;59.912;30.300;2023-04-28T09:28:29;101412.06;;;11.86;49.28
35918;BME280;22011;59.912;30.300;2023-04-28T09:30:57;101404.91;;;11.86;48.00
35918;BME280;22011;59.912;30.300;2023-04-28T09:33:25;101400.72;;;11.84;48.62
35918;BME280;22011;59.912;30.300;2023-04-28T09:35:54;101405.94;;;11.93;48.51
35918;BME280;22011;59.912;30.300;2023-04-28T09:38:22;101401.22;;;11.87;47.64
35918;BME280;22011;59.912;30.300;2023-04-28T09:40:51;101406.38;;;11.81;48.30
35918;BME280;22011;59.912;30.300;2023-04-28T09:43:23;101402.47;;;12.01;49.20
35918;BME280;22011;59.912;30.300;2023-04-28T09:45:51;101405.59;;;11.88;49.39
35918;BME280;22011;59.912;30.300;2023-04-28T09:48:26;101398.84;;;12.10;48.93
35918;BME280;22011;59.912;30.300;2023-04-28T09:50:56;101402.31;;;12.02;48.96
35918;BME280;22011;59.912;30.300;2023-04-28T09:53:24;101404.72;;;12.14;47.89
35918;BME280;22011;59.912;30.300;2023-04-28T09:55:53;101398.38;;;12.15;47.02
35918;BME280;22011;59.912;30.300;2023-04-28T09:58:23;101397.09;;;12.27;46.02
35918;BME280;22011;59.912;30.300;2023-04-28T10:00:52;101400.84;;;12.42;43.83
35918;BME280;22011;59.912;30.300;2023-04-28T10:03:23;101401.34;;;12.54;44.22
35918;BME280;22011;59.912;30.300;2023-04-28T10:05:52;101401.50;;;12.44;42.85
35918;BME280;22011;59.912;30.300;2023-04-28T10:08:22;101403.19;;;12.53;43.60
35918;BME280;22011;59.912;30.300;2023-04-28T10:10:50;101419.84;;;13.05;45.31
35918;BME280;22011;59.912;30.300;2023-04-28T10:13:19;101409.56;;;12.60;40.60
35918;BME280;22011;59.912;30.300;2023-04-28T10:15:48;101406.00;;;12.52;41.04
35918;BME280;22011;59.912;30.300;2023-04-28T10:18:16;101411.56;;;12.58;40.43
35918;BME280;22011;59.912;30.300;2023-04-28T10:20:45;101408.88;;;12.58;38.94
35918;BME280;22011;59.912;30.300;2023-04-28T10:23:35;101406.09;;;12.84;40.23
35918;BME280;22011;59.912;30.300;2023-04-28T10:26:10;101413.09;;;12.69;40.22
35918;BME280;22011;59.912;30.300;2023-04-28T10:28:45;101411.75;;;12.65;39.70
35918;BME280;22011;59.912;30.300;2023-04-28T10:31:13;101411.19;;;12.53;37.03
35918;BME280;22011;59.912;30.300;2023-04-28T10:33:41;101406.53;;;12.55;36.93
35918;BME280;22011;59.912;30.300;2023-04-28T10:36:09;101403.19;;;12.53;36.72
35918;BME280;22011;59.912;30.300;2023-04-28T10:39:09;101401.75;;;12.75;36.75
35918;BME280;22011;59.912;30.300;2023-04-28T10:41:37;101400.84;;;12.58;34.60
35918;BME280;22011;59.912;30.300;2023-04-28T10:47:07;101405.44;;;12.90;34.03
35918;BME280;22011;59.912;30.300;2023-04-28T10:50:06;101392.94;;;13.07;34.12
35918;BME280;22011;59.912;30.300;2023-04-28T10:52:47;101391.59;;;13.03;33.37
35918;BME280;22011;59.912;30.300;2023-04-28T10:55:30;101392.25;;;13.05;32.51
35918;BME280;22011;59.912;30.300;2023-04-28T10:58:31;101382.91;;;13.09;31.99
35918;BME280;22011;59.912;30.300;2023-04-28T11:01:26;101392.91;;;12.99;31.11
35918;BME280;22011;59.912;30.300;2023-04-28T11:03:55;101397.69;;;12.63;31.15
35918;BME280;22011;59.912;30.300;2023-04-28T11:06:29;101390.88;;;12.68;30.39
35918;BME280;22011;59.912;30.300;2023-04-28T11:08:58;101390.06;;;12.84;28.55
35918;BME280;22011;59.912;30.300;2023-04-28T11:11:28;101386.22;;;12.95;30.78
35918;BME280;22011;59.912;30.300;2023-04-28T11:14:31;101395.66;;;13.23;30.46
35918;BME280;22011;59.912;30.300;2023-04-28T11:16:59;101395.94;;;13.04;28.69
35918;BME280;22011;59.912;30.300;2023-04-28T11:19:29;101401.63;;;13.09;27.49
35918;BME280;22011;59.912;30.300;2023-04-28T11:21:58;101391.63;;;13.19;28.68
35918;BME280;22011;59.912;30.300;2023-04-28T11:24:26;101392.31;;;13.29;28.73
35918;BME280;22011;59.912;30.300;2023-04-28T11:26:56;101394.31;;;13.27;29.76
35918;BME280;22011;59.912;30.300;2023-04-28T11:29:30;101394.31;;;13.44;28.04
35918;BME280;22011;59.912;30.300;2023-04-28T11:31:58;101411.38;;;13.18;27.00
35918;BME280;22011;59.912;30.300;2023-04-28T11:34:26;101394.28;;;13.11;28.84
35918;BME280;22011;59.912;30.300;2023-04-28T11:36:54;101395.31;;;13.26;26.98
35918;BME280;22011;59.912;30.300;2023-04-28T11:39:26;101392.97;;;13.31;28.14
35918;BME280;22011;59.912;30.300;2023-04-28T11:41:56;101400.63;;;13.10;28.32
35918;BME280;22011;59.912;30.300;2023-04-28T11:44:25;101394.06;;;12.88;26.88
35918;BME280;22011;59.912;30.300;2023-04-28T11:46:54;101403.25;;;12.77;28.87
35918;BME280;22011;59.912;30.300;2023-04-28T11:49:23;101395.72;;;12.73;28.62
35918;BME280;22011;59.912;30.300;2023-04-28T11:51:51;101402.91;;;12.72;29.21
35918;BME280;22011;59.912;30.300;2023-04-28T11:54:23;101400.09;;;12.90;29.76
35918;BME280;22011;59.912;30.300;2023-04-28T11:56:52;101390.75;;;12.94;31.16
35918;BME280;22011;59.912;30.300;2023-04-28T11:59:24;101390.59;;;13.12;31.56
35918;BME280;22011;59.912;30.300;2023-04-28T12:01:54;101396.94;;;13.03;31.57
35918;BME280;22011;59.912;30.300;2023-04-28T12:04:29;101398.00;;;13.18;33.15
35918;BME280;22011;59.912;30.300;2023-04-28T12:06:58;101404.97;;;13.03;33.22
35918;BME280;22011;59.912;30.300;2023-04-28T12:09:27;101394.44;;;13.01;33.04
35918;BME280;22011;59.912;30.300;2023-04-28T12:11:55;101403.47;;;13.00;35.01
35918;BME280;22011;59.912;30.300;2023-04-28T12:14:24;101402.28;;;12.95;36.61
35918;BME280;22011;59.912;30.300;2023-04-28T12:16:52;101405.09;;;12.77;35.67
35918;BME280;22011;59.912;30.300;2023-04-28T12:19:19;101411.72;;;12.57;36.85
35918;BME280;22011;59.912;30.300;2023-04-28T12:22:03;101418.69;;;12.50;37.74
35918;BME280;22011;59.912;30.300;2023-04-28T12:24:31;101423.00;;;12.00;39.09
35918;BME280;22011;59.912;30.300;2023-04-28T12:27:17;101413.38;;;12.07;40.49
35918;BME280;22011;59.912;30.300;2023-04-28T12:29:48;101421.00;;;11.76;40.81
35918;BME280;22011;59.912;30.300;2023-04-28T12:32:16;101422.47;;;11.71;40.99
35918;BME280;22011;59.912;30.300;2023-04-28T12:34:45;101429.41;;;11.64;41.53
35918;BME280;22011;59.912;30.300;2023-04-28T12:37:13;101421.66;;;11.53;41.40
35918;BME280;22011;59.912;30.300;2023-04-28T12:39:40;101432.47;;;11.51;42.24
35918;BME280;22011;59.912;30.300;2023-04-28T12:42:08;101424.59;;;11.41;42.79
35918;BME280;22011;59.912;30.300;2023-04-28T12:44:37;101434.78;;;11.46;42.98
35918;BME280;22011;59.912;30.300;2023-04-28T12:47:07;101433.00;;;11.55;43.32
35918;BME280;22011;59.912;30.300;2023-04-28T12:49:36;101433.31;;;11.52;43.88
35918;BME280;22011;59.912;30.300;2023-04-28T12:52:04;101438.66;;;11.52;44.88
35918;BME280;22011;59.912;30.300;2023-04-28T12:54:32;101438.66;;;11.52;45.74
35918;BME280;22011;59.912;30.300;2023-04-28T12:57:00;101440.66;;;11.50;46.57
35918;BME280;22011;59.912;30.300;2023-04-28T12:59:28;101438.97;;;11.48;46.73